Time;durP1;ratioP1;P1;durP2;ratioP2;P2;SDS_P1;SDS_P2;PMS_P1;PMS_P2;Temp;Humidity;BMP_temperature;BMP_pressure;BME280_temperature;BME280_humidity;BME280_pressure;Samples;Min_cycle;Max_cycle;Signal;HPM_P1;HPM_P2
2022/09/20 00:01:51;;;;;;;6.45;3.95;;;16.90;81.80;;;;;;1858962;77;21038;-62
2022/09/20 00:04:21;;;;;;;5.60;3.75;;;16.90;81.40;;;;;;1858964;77;21038;-62
2022/09/20 00:06:50;;;;;;;8.05;3.72;;;16.90;81.40;;;;;;1858945;77;21014;-63
2022/09/20 00:09:19;;;;;;;5.67;3.70;;;17.00;81.80;;;;;;1859103;77;21491;-63
2022/09/20 00:11:48;;;;;;;9.13;3.90;;;16.90;81.80;;;;;;1858932;77;21034;-63
2022/09/20 00:14:18;;;;;;;4.47;3.40;;;16.90;81.70;;;;;;1858965;77;21054;-62
2022/09/20 00:16:47;;;;;;;4.92;3.35;;;16.90;81.60;;;;;;1858932;77;21105;-62
2022/09/20 00:19:18;;;;;;;5.67;3.95;;;16.90;81.80;;;;;;1859048;77;21445;-62
2022/09/20 00:21:48;;;;;;;8.83;3.70;;;16.90;82.10;;;;;;1858942;77;21010;-62
2022/09/20 00:24:18;;;;;;;8.50;3.72;;;16.90;82.20;;;;;;1858930;77;21050;-62
2022/09/20 00:26:47;;;;;;;8.25;4.08;;;16.90;82.30;;;;;;1858971;77;21046;-62
2022/09/20 00:29:16;;;;;;;9.50;4.17;;;16.90;81.20;;;;;;1859052;77;21058;-62
2022/09/20 00:31:46;;;;;;;7.47;5.55;;;16.70;81.20;;;;;;1859045;77;21050;-62
2022/09/20 00:37:02;;;;;;;9.15;4.55;;;16.60;82.40;;;;;;1858951;77;21116;-62
2022/09/20 00:39:31;;;;;;;6.92;4.42;;;16.60;82.60;;;;;;1858940;77;21034;-63
2022/09/20 00:42:01;;;;;;;6.67;3.65;;;16.60;82.70;;;;;;1858859;77;21038;-63
2022/09/20 00:44:49;;;;;;;8.05;3.75;;;16.70;82.70;;;;;;1858866;77;21078;-62
2022/09/20 00:47:41;;;;;;;7.85;3.60;;;16.70;82.60;;;;;;1859015;77;21105;-62
2022/09/20 00:50:19;;;;;;;7.92;4.12;;;16.70;82.40;;;;;;1859009;77;21046;-62
2022/09/20 00:52:51;;;;;;;11.08;5.03;;;16.70;82.10;;;;;;1858569;76;21117;-62
2022/09/20 00:55:21;;;;;;;8.95;4.83;;;16.60;82.00;;;;;;1865385;77;21045;-62
2022/09/20 00:57:50;;;;;;;8.18;4.15;;;16.60;81.70;;;;;;1865201;77;21058;-62
2022/09/20 01:00:20;;;;;;;10.58;4.83;;;16.50;82.40;;;;;;1865224;77;21463;-63
2022/09/20 01:02:51;;;;;;;12.73;5.87;;;16.50;82.60;;;;;;1865144;77;21034;-63
2022/09/20 01:05:21;;;;;;;7.00;3.65;;;16.50;82.90;;;;;;1865207;77;21546;-63
2022/09/20 01:07:51;;;;;;;7.20;4.08;;;16.40;82.30;;;;;;1865330;77;21175;-62
2022/09/20 01:10:21;;;;;;;10.63;5.40;;;16.40;82.90;;;;;;1865258;77;21033;-62
2022/09/20 01:12:52;;;;;;;8.38;4.60;;;16.40;83.20;;;;;;1865195;77;21062;-63
2022/09/20 01:15:22;;;;;;;8.70;4.60;;;16.40;83.00;;;;;;1865223;77;21108;-63
2022/09/20 01:17:55;;;;;;;7.10;3.72;;;16.40;82.90;;;;;;1865232;77;21046;-63
2022/09/20 01:20:29;;;;;;;7.45;3.85;;;16.30;81.90;;;;;;1865201;77;21156;-63
2022/09/20 01:23:04;;;;;;;6.83;3.10;;;16.20;81.30;;;;;;1865330;77;21092;-63
2022/09/20 01:25:45;;;;;;;5.78;3.08;;;16.00;81.20;;;;;;1864230;77;21043;-63
2022/09/20 01:28:15;;;;;;;6.87;3.20;;;15.80;81.80;;;;;;1864322;77;21137;-62
2022/09/20 01:30:55;;;;;;;7.17;3.30;;;15.70;82.20;;;;;;1865340;77;21515;-62
2022/09/20 01:33:30;;;;;;;10.65;3.30;;;15.70;82.70;;;;;;1865226;77;21026;-63
2022/09/20 01:36:02;;;;;;;5.08;3.17;;;15.70;83.20;;;;;;1865337;77;21039;-63
2022/09/20 01:38:54;;;;;;;4.28;3.02;;;15.80;83.00;;;;;;1865295;77;21034;-62
2022/09/20 01:41:29;;;;;;;7.37;3.42;;;15.80;82.80;;;;;;1865292;77;21119;-63
2022/09/20 01:44:10;;;;;;;4.90;3.40;;;15.90;82.70;;;;;;1861068;76;21039;-63
2022/09/20 01:46:42;;;;;;;4.12;3.02;;;15.90;82.90;;;;;;1864881;77;21115;-63
2022/09/20 01:49:36;;;;;;;11.22;3.40;;;16.00;83.10;;;;;;1865302;77;20998;-63
2022/09/20 01:52:41;;;;;;;4.75;3.00;;;16.00;83.30;;;;;;1864326;77;21101;-63
2022/09/20 01:55:30;;;;;;;4.12;2.75;;;16.10;83.60;;;;;;1865539;77;21088;-63
2022/09/20 01:58:22;;;;;;;10.58;3.80;;;16.10;83.30;;;;;;1865409;77;21124;-63
2022/09/20 02:01:06;;;;;;;6.47;3.50;;;16.20;83.50;;;;;;1863872;77;21116;-63
2022/09/20 02:03:54;;;;;;;4.78;3.20;;;16.20;83.40;;;;;;1863583;76;21100;-63
2022/09/20 02:06:27;;;;;;;12.05;4.22;;;16.20;83.00;;;;;;1865399;77;21054;-63
2022/09/20 02:09:17;;;;;;;9.88;4.00;;;16.20;82.80;;;;;;1864803;77;21163;-63
2022/09/20 02:12:12;;;;;;;7.15;4.05;;;16.10;83.10;;;;;;1865309;75;21167;-63
2022/09/20 02:15:19;;;;;;;9.58;4.45;;;16.10;83.40;;;;;;1864827;77;21112;-63
2022/09/20 02:18:25;;;;;;;7.28;4.15;;;16.10;83.60;;;;;;1865403;77;21057;-63
2022/09/20 02:21:21;;;;;;;9.40;4.20;;;16.10;83.70;;;;;;1865479;77;21058;-63
2022/09/20 02:24:00;;;;;;;5.35;3.17;;;16.20;83.90;;;;;;1864494;77;21058;-63
2022/09/20 02:26:48;;;;;;;6.17;3.65;;;16.20;83.90;;;;;;1864635;77;21054;-63
2022/09/20 02:29:43;;;;;;;7.33;3.87;;;16.20;84.20;;;;;;1865359;77;21062;-63
2022/09/20 02:32:47;;;;;;;7.63;3.67;;;16.20;84.20;;;;;;1850199;77;21030;-63
2022/09/20 02:35:38;;;;;;;9.55;4.45;;;16.20;83.90;;;;;;1865014;77;21093;-63
2022/09/20 02:38:38;;;;;;;8.65;4.12;;;16.20;84.10;;;;;;1865271;77;21148;-63
2022/09/20 02:41:22;;;;;;;5.45;3.37;;;16.20;84.00;;;;;;1865379;77;21057;-63
2022/09/20 02:43:57;;;;;;;7.75;3.95;;;16.10;83.80;;;;;;1865416;77;21112;-63
2022/09/20 02:46:30;;;;;;;;;;;16.10;84.00;;;;;;1867720;77;21590;-63
2022/09/20 02:49:14;;;;;;;8.98;3.85;;;16.10;84.10;;;;;;1865131;76;20110;-63
2022/09/20 02:51:52;;;;;;;6.03;3.98;;;16.20;83.90;;;;;;1865332;77;21477;-63
2022/09/20 02:54:39;;;;;;;10.48;4.00;;;16.20;84.30;;;;;;1865354;77;21018;-63
2022/09/20 02:57:17;;;;;;;9.38;3.40;;;16.10;84.70;;;;;;1865387;77;21473;-63
2022/09/20 02:59:58;;;;;;;4.72;3.42;;;16.10;83.70;;;;;;1864380;76;21066;-63
2022/09/20 03:02:50;;;;;;;6.50;3.33;;;16.10;83.90;;;;;;1865335;77;21034;-63
2022/09/20 03:05:22;;;;;;;10.08;4.47;;;16.10;84.00;;;;;;1864289;76;21038;-63
2022/09/20 03:08:03;;;;;;;9.80;4.45;;;16.00;84.00;;;;;;1865377;77;21437;-63
2022/09/20 03:10:37;;;;;;;11.75;4.83;;;16.00;84.30;;;;;;1865021;77;21131;-63
2022/09/20 03:13:38;;;;;;;5.37;3.55;;;16.00;83.80;;;;;;1865406;77;21155;-63
2022/09/20 03:16:33;;;;;;;10.72;6.30;;;16.00;84.60;;;;;;1865415;77;21058;-63
2022/09/20 03:19:11;;;;;;;6.90;4.33;;;15.80;81.20;;;;;;1864756;76;21054;-63
2022/09/20 03:21:52;;;;;;;7.05;3.60;;;15.50;81.70;;;;;;1865242;77;21119;-63
2022/09/20 03:24:33;;;;;;;4.47;3.33;;;15.40;83.00;;;;;;1863984;77;21557;-63
2022/09/20 03:27:11;;;;;;;9.38;3.83;;;15.40;83.60;;;;;;1864445;77;21128;-63
2022/09/20 03:29:52;;;;;;;7.55;3.62;;;15.40;83.90;;;;;;1864422;77;21030;-63
2022/09/20 03:32:30;;;;;;;5.33;3.15;;;15.40;84.10;;;;;;1865382;77;21033;-63
2022/09/20 03:35:02;;;;;;;7.53;3.65;;;15.40;84.40;;;;;;1864742;76;21034;-63
2022/09/20 03:37:58;;;;;;;6.00;3.37;;;15.50;84.70;;;;;;1864147;77;21123;-63
2022/09/20 03:40:50;;;;;;;7.60;3.33;;;15.50;85.00;;;;;;1864987;77;21551;-63
2022/09/20 03:43:32;;;;;;;5.20;3.75;;;15.50;84.90;;;;;;1863965;77;21103;-63
2022/09/20 03:46:09;;;;;;;9.43;3.80;;;15.50;85.20;;;;;;1864480;77;21085;-63
2022/09/20 03:48:42;;;;;;;8.78;4.45;;;15.50;85.30;;;;;;1864568;77;21061;-63
2022/09/20 03:51:35;;;;;;;5.50;3.95;;;15.60;85.60;;;;;;1864063;77;21111;-62
2022/09/20 03:54:19;;;;;;;10.15;6.85;;;15.60;86.10;;;;;;1865418;77;21026;-62
2022/09/20 03:57:06;;;;;;;11.10;5.92;;;15.70;85.80;;;;;;1855737;77;21038;-62
2022/09/20 04:00:02;;;;;;;8.95;4.90;;;15.80;85.30;;;;;;1865387;77;21038;-62
2022/09/20 04:02:57;;;;;;;18.67;7.10;;;15.80;85.30;;;;;;1864510;77;21096;-62
2022/09/20 04:05:38;;;;;;;16.25;7.03;;;15.90;85.20;;;;;;1865287;77;21058;-63
2022/09/20 04:08:22;;;;;;;13.10;7.60;;;15.90;85.00;;;;;;1864305;77;21109;-62
2022/09/20 04:11:04;;;;;;;17.92;7.80;;;16.00;85.10;;;;;;1864638;77;21017;-62
2022/09/20 04:13:39;;;;;;;15.72;7.55;;;16.10;85.00;;;;;;1865288;77;21103;-62
2022/09/20 04:16:17;;;;;;;15.25;7.10;;;16.20;84.40;;;;;;1865261;77;21116;-62
2022/09/20 04:18:49;;;;;;;16.40;7.85;;;16.20;84.20;;;;;;1864308;76;21065;-62
2022/09/20 04:21:26;;;;;;;11.65;7.10;;;16.30;83.90;;;;;;1865225;77;21484;-62
2022/09/20 04:24:04;;;;;;;11.08;5.75;;;16.30;82.80;;;;;;1865148;77;21091;-62
2022/09/20 04:26:38;;;;;;;16.60;5.87;;;16.30;83.60;;;;;;1865127;77;21026;-62
2022/09/20 04:29:15;;;;;;;9.73;5.42;;;16.30;83.10;;;;;;1865416;77;21058;-62
2022/09/20 04:31:55;;;;;;;13.18;6.08;;;16.40;83.00;;;;;;1864593;77;21123;-62
2022/09/20 04:36:27;;;;;;;17.15;6.60;;;16.40;83.40;;;;;;1817067;77;21017;-62
2022/09/20 04:37:08;;;;;;;11.90;5.53;;;16.50;83.20;;;;;;1860555;77;21022;-62
2022/09/20 04:39:41;;;;;;;12.65;6.03;;;16.50;83.00;;;;;;1862601;77;21140;-62
2022/09/20 04:42:30;;;;;;;9.38;5.08;;;16.50;82.90;;;;;;1865210;77;21030;-61
2022/09/20 04:45:11;;;;;;;11.20;5.12;;;16.50;83.20;;;;;;1865318;77;21058;-61
2022/09/20 04:48:04;;;;;;;12.68;5.67;;;16.60;83.40;;;;;;1859740;77;21074;-61
2022/09/20 04:50:54;;;;;;;11.68;5.15;;;16.60;83.50;;;;;;1857544;77;21096;-61
2022/09/20 04:53:52;;;;;;;13.60;5.78;;;16.70;83.30;;;;;;1857508;76;21066;-61
2022/09/20 04:56:41;;;;;;;16.60;5.90;;;16.80;83.10;;;;;;1859056;77;21214;-61
2022/09/20 04:59:22;;;;;;;15.30;6.37;;;16.80;83.10;;;;;;1858902;77;21171;-61
2022/09/20 05:01:57;;;;;;;12.43;6.78;;;16.80;82.80;;;;;;1757859;77;21504;-60
2022/09/20 05:04:26;;;;;;;;;;;16.80;82.80;;;;;;1860728;77;21062;-61
2022/09/20 05:07:15;;;;;;;7.65;5.05;;;16.80;81.40;;;;;;1858567;77;20115;-61
2022/09/20 05:09:56;;;;;;;10.80;5.30;;;16.60;82.20;;;;;;1856765;76;21089;-63
2022/09/20 05:12:45;;;;;;;12.60;5.50;;;16.60;82.60;;;;;;1858584;77;21094;-63
2022/09/20 05:15:36;;;;;;;14.33;5.47;;;16.60;82.70;;;;;;1858652;77;21477;-63
2022/09/20 05:18:23;;;;;;;12.95;6.15;;;16.60;82.10;;;;;;1858598;77;21030;-63
2022/09/20 05:21:14;;;;;;;11.33;5.55;;;16.60;82.10;;;;;;1858561;77;21108;-63
2022/09/20 05:23:57;;;;;;;10.93;5.90;;;16.60;82.30;;;;;;1857922;77;21041;-62
2022/09/20 05:26:31;;;;;;;10.88;5.55;;;16.70;82.90;;;;;;1858519;77;21030;-62
2022/09/20 05:29:08;;;;;;;16.73;7.15;;;16.80;83.20;;;;;;1858868;77;21049;-62
2022/09/20 05:31:42;;;;;;;12.98;6.70;;;16.90;82.90;;;;;;1858535;77;21171;-62
2022/09/20 05:34:32;;;;;;;11.28;5.92;;;17.00;82.20;;;;;;1858585;77;21061;-62
2022/09/20 05:37:07;;;;;;;11.25;6.72;;;17.00;81.40;;;;;;1858707;77;21465;-62
2022/09/20 05:39:41;;;;;;;13.13;7.35;;;17.00;81.50;;;;;;1858585;76;21104;-62
2022/09/20 05:42:17;;;;;;;16.45;8.33;;;17.00;81.90;;;;;;1858453;76;21504;-61
2022/09/20 05:45:09;;;;;;;14.47;7.45;;;17.10;82.10;;;;;;1857531;77;21132;-62
2022/09/20 05:47:41;;;;;;;12.93;7.75;;;17.10;81.80;;;;;;1856996;76;21168;-61
2022/09/20 05:50:38;;;;;;;18.15;7.35;;;17.10;81.80;;;;;;1858724;77;21140;-62
2022/09/20 05:53:28;;;;;;;18.92;7.78;;;17.10;81.80;;;;;;1858789;77;21196;-62
2022/09/20 05:56:16;;;;;;;19.87;9.50;;;17.10;81.80;;;;;;1857999;77;21101;-62
2022/09/20 05:59:01;;;;;;;12.88;8.38;;;17.10;81.50;;;;;;1858840;77;21050;-62
2022/09/20 06:01:48;;;;;;;16.50;7.80;;;17.20;81.60;;;;;;1859165;77;21030;-61
2022/09/20 06:04:32;;;;;;;15.78;9.25;;;17.20;81.60;;;;;;1850698;77;21171;-62
2022/09/20 06:07:08;;;;;;;20.80;8.25;;;17.30;81.50;;;;;;1835998;77;21062;-62
2022/09/20 06:10:06;;;;;;;14.75;10.00;;;17.40;81.40;;;;;;1849356;77;21135;-61
2022/09/20 06:12:44;;;;;;;14.20;8.03;;;17.50;81.50;;;;;;1850317;77;21054;-61
2022/09/20 06:15:17;;;;;;;13.32;8.10;;;17.60;81.20;;;;;;1849308;77;21066;-61
2022/09/20 06:17:52;;;;;;;13.72;9.95;;;17.70;81.10;;;;;;1850272;77;21047;-62
2022/09/20 06:20:30;;;;;;;15.68;6.70;;;17.70;80.50;;;;;;1849993;77;21058;-61
2022/09/20 06:23:02;;;;;;;9.58;5.75;;;17.80;80.10;;;;;;1850332;77;21054;-62
2022/09/20 06:25:43;;;;;;;10.45;6.05;;;17.80;80.30;;;;;;1850401;77;21056;-62
2022/09/20 06:28:18;;;;;;;10.82;6.00;;;17.90;80.60;;;;;;1849978;76;21558;-62
2022/09/20 06:30:52;;;;;;;14.63;7.87;;;18.00;80.40;;;;;;1850395;77;21089;-62
2022/09/20 06:33:29;;;;;;;14.78;7.50;;;18.10;79.80;;;;;;1850479;77;21054;-62
2022/09/20 06:42:03;;;;;;;14.70;7.12;;;18.40;80.10;;;;;;1850281;77;21058;-63
2022/09/20 06:44:32;;;;;;;12.40;7.42;;;18.60;79.50;;;;;;1850400;77;21105;-62
2022/09/20 06:47:02;;;;;;;10.28;7.72;;;18.70;79.00;;;;;;1850249;77;21128;-62
2022/09/20 06:49:34;;;;;;;13.85;6.50;;;18.80;78.80;;;;;;1850414;77;21038;-63
2022/09/20 06:52:10;;;;;;;14.10;7.00;;;19.00;78.40;;;;;;1850329;77;21042;-63
2022/09/20 06:54:44;;;;;;;19.48;6.08;;;19.10;77.40;;;;;;1850526;77;21539;-63
2022/09/20 06:57:12;;;;;;;10.30;4.80;;;19.10;77.20;;;;;;1849774;77;21038;-62
2022/09/20 06:59:42;;;;;;;16.42;7.87;;;19.20;77.60;;;;;;1850320;77;21010;-63
2022/09/20 07:02:11;;;;;;;12.00;7.20;;;19.30;77.50;;;;;;1850336;77;21096;-63
2022/09/20 07:04:40;;;;;;;10.45;6.37;;;19.30;77.50;;;;;;1850266;77;21015;-62
2022/09/20 07:07:12;;;;;;;12.63;7.00;;;19.40;77.00;;;;;;1850248;77;21124;-63
2022/09/20 07:09:42;;;;;;;10.23;5.42;;;19.50;76.80;;;;;;1850425;77;21117;-63
2022/09/20 07:12:11;;;;;;;8.40;3.02;;;19.60;75.90;;;;;;1850364;77;21019;-63
2022/09/20 07:14:41;;;;;;;6.83;2.90;;;19.60;74.40;;;;;;1850380;77;21035;-63
2022/09/20 07:17:12;;;;;;;7.35;3.10;;;19.60;73.80;;;;;;1850352;77;21058;-63
2022/09/20 07:19:41;;;;;;;6.78;3.00;;;19.70;73.50;;;;;;1850385;77;21066;-63
2022/09/20 07:22:10;;;;;;;7.42;3.10;;;19.70;73.50;;;;;;1850293;77;21038;-63
2022/09/20 07:24:40;;;;;;;13.20;3.58;;;19.80;72.80;;;;;;1850356;77;21038;-63
2022/09/20 07:27:11;;;;;;;8.30;3.12;;;19.90;71.80;;;;;;1850327;77;21035;-63
2022/09/20 07:29:41;;;;;;;5.85;2.50;;;19.90;71.70;;;;;;1850298;77;21042;-64
2022/09/20 07:32:10;;;;;;;7.58;2.50;;;20.00;72.20;;;;;;1850273;77;21046;-64
2022/09/20 07:34:40;;;;;;;10.90;3.02;;;20.20;71.40;;;;;;1850381;77;21018;-63
2022/09/20 07:37:09;;;;;;;9.83;3.22;;;20.30;71.50;;;;;;1850252;77;21108;-64
2022/09/20 07:39:38;;;;;;;12.63;3.10;;;20.40;71.10;;;;;;1850442;77;21070;-63
2022/09/20 07:42:07;;;;;;;8.53;3.08;;;20.50;71.40;;;;;;1850187;77;21082;-64
2022/09/20 07:44:39;;;;;;;8.45;3.25;;;20.60;70.70;;;;;;1850237;77;21108;-64
2022/09/20 07:47:09;;;;;;;8.18;3.45;;;20.70;70.70;;;;;;1850183;77;21086;-64
2022/09/20 07:49:38;;;;;;;6.53;3.70;;;20.70;70.00;;;;;;1849643;77;21105;-64
2022/09/20 07:52:10;;;;;;;6.33;3.20;;;20.80;70.10;;;;;;1849705;77;21152;-64
2022/09/20 07:54:39;;;;;;;7.00;3.35;;;20.90;69.90;;;;;;1849718;77;21441;-64
2022/09/20 07:57:09;;;;;;;6.70;3.42;;;21.00;69.30;;;;;;1849579;77;21043;-64
2022/09/20 07:59:38;;;;;;;4.05;2.85;;;21.10;69.00;;;;;;1848226;77;21081;-69
2022/09/20 08:02:08;;;;;;;7.37;3.08;;;21.10;70.50;;;;;;1848955;77;21120;-72
2022/09/20 08:04:38;;;;;;;4.62;2.83;;;21.20;70.10;;;;;;1849217;77;21485;-71
2022/09/20 08:07:07;;;;;;;5.08;3.05;;;21.30;69.60;;;;;;1848893;77;21070;-71
2022/09/20 08:09:36;;;;;;;9.35;3.55;;;21.30;69.00;;;;;;1849010;77;21039;-71
2022/09/20 08:12:07;;;;;;;10.35;2.90;;;21.50;68.80;;;;;;1849155;77;21034;-69
2022/09/20 08:14:37;;;;;;;12.90;3.33;;;21.50;69.10;;;;;;1849011;77;21141;-70
2022/09/20 08:17:06;;;;;;;6.45;3.05;;;21.60;69.40;;;;;;1849093;77;21120;-66
2022/09/20 08:19:38;;;;;;;6.30;3.10;;;21.70;68.90;;;;;;1849055;77;21090;-71
2022/09/20 08:22:06;;;;;;;5.72;2.95;;;21.70;69.70;;;;;;1848821;77;21190;-69
2022/09/20 08:24:35;;;;;;;8.10;3.70;;;21.90;70.50;;;;;;1849018;77;21144;-67
2022/09/20 08:27:04;;;;;;;5.70;2.62;;;21.90;69.80;;;;;;1849030;77;21035;-64
2022/09/20 08:29:34;;;;;;;16.15;4.50;;;22.00;69.60;;;;;;1848904;77;21062;-68
2022/09/20 08:32:03;;;;;;;7.22;3.45;;;22.10;69.70;;;;;;1848952;77;21082;-66
2022/09/20 08:34:32;;;;;;;9.50;4.10;;;22.10;69.20;;;;;;1848165;77;21034;-64
2022/09/20 08:37:02;;;;;;;7.37;3.50;;;22.10;68.30;;;;;;1847424;78;21108;-73
2022/09/20 08:39:31;;;;;;;12.23;3.62;;;22.10;69.30;;;;;;1847407;78;21171;-66
2022/09/20 08:42:11;;;;;;;4.10;2.70;;;22.10;68.70;;;;;;1847413;78;21113;-69
2022/09/20 08:44:51;;;;;;;11.55;3.33;;;22.20;68.10;;;;;;1847507;77;21066;-68
2022/09/20 08:47:23;;;;;;;7.75;3.75;;;22.20;67.50;;;;;;1847454;77;21097;-69
2022/09/20 08:49:54;;;;;;;8.83;3.02;;;22.30;68.00;;;;;;1847683;77;21075;-64
2022/09/20 08:52:31;;;;;;;6.47;3.50;;;22.30;67.60;;;;;;1847594;77;21121;-70
2022/09/20 08:55:01;;;;;;;6.92;3.85;;;22.40;67.70;;;;;;1847659;78;21124;-66
2022/09/20 08:57:32;;;;;;;7.90;3.60;;;22.50;68.10;;;;;;1847450;77;21089;-68
2022/09/20 09:00:04;;;;;;;5.53;3.25;;;22.50;67.10;;;;;;1847364;78;21469;-60
2022/09/20 09:02:34;;;;;;;6.83;3.90;;;22.60;67.60;;;;;;1847525;78;21181;-59
2022/09/20 09:05:05;;;;;;;7.42;4.03;;;22.70;67.00;;;;;;1847550;78;21097;-63
2022/09/20 09:07:34;;;;;;;9.60;4.05;;;22.80;67.00;;;;;;1846734;78;21555;-70
2022/09/20 09:10:03;;;;;;;5.62;3.33;;;22.90;67.00;;;;;;1847719;78;21086;-71
2022/09/20 09:12:35;;;;;;;6.50;3.52;;;22.90;67.10;;;;;;1847559;78;21176;-62
2022/09/20 09:15:22;;;;;;;8.00;3.65;;;22.90;67.10;;;;;;1847840;78;21449;-60
2022/09/20 09:17:51;;;;;;;7.78;3.50;;;23.00;67.30;;;;;;1838261;78;21054;-64
2022/09/20 09:20:22;;;;;;;6.92;3.90;;;23.10;67.10;;;;;;1847522;78;21062;-67
2022/09/20 09:23:04;;;;;;;19.27;5.50;;;23.20;66.40;;;;;;1847622;78;21129;-71
2022/09/20 09:25:40;;;;;;;6.72;3.47;;;23.30;65.50;;;;;;1847495;77;21066;-64
2022/09/20 09:28:12;;;;;;;13.83;4.78;;;23.30;65.90;;;;;;1847476;78;21097;-66
2022/09/20 09:30:46;;;;;;;14.07;3.95;;;23.30;65.50;;;;;;1847455;78;21039;-66
2022/09/20 09:33:22;;;;;;;6.10;3.72;;;23.30;65.00;;;;;;1847853;78;21062;-66
2022/09/20 09:36:05;;;;;;;7.05;3.70;;;23.30;64.90;;;;;;1847607;78;21074;-71
2022/09/20 09:38:38;;;;;;;7.72;3.62;;;23.30;64.80;;;;;;1847833;77;21133;-64
2022/09/20 09:41:28;;;;;;;8.80;3.47;;;23.30;65.40;;;;;;1847760;78;21481;-64
2022/09/20 09:44:00;;;;;;;9.98;3.45;;;23.30;65.50;;;;;;1845686;78;21075;-65
2022/09/20 09:46:34;;;;;;;6.75;3.83;;;23.30;65.50;;;;;;1847445;78;21156;-66
2022/09/20 09:49:09;;;;;;;5.67;2.92;;;23.30;65.50;;;;;;1847600;77;21137;-64
2022/09/20 09:51:37;;;;;;;;;;;23.40;65.30;;;;;;1850269;77;21066;-65
2022/09/20 09:54:09;;;;;;;8.03;3.17;;;23.50;65.60;;;;;;1847575;78;20119;-66
2022/09/20 09:56:56;;;;;;;6.65;4.20;;;23.50;65.90;;;;;;1847505;78;21389;-68
2022/09/20 09:59:40;;;;;;;8.08;4.35;;;23.50;65.60;;;;;;1847676;78;21031;-62
2022/09/20 10:02:30;;;;;;;10.30;3.53;;;23.60;65.80;;;;;;1799575;78;21046;-73
2022/09/20 10:05:14;;;;;;;8.73;3.87;;;23.60;64.40;;;;;;1847620;78;21058;-65
2022/09/20 10:08:15;;;;;;;7.40;3.83;;;23.70;64.70;;;;;;1847183;78;21109;-60
2022/09/20 10:11:10;;;;;;;6.05;4.00;;;23.70;65.10;;;;;;1847662;78;21039;-66
2022/09/20 10:13:54;;;;;;;15.18;4.58;;;23.80;64.40;;;;;;1847792;78;21168;-66
2022/09/20 10:16:27;;;;;;;12.10;6.17;;;23.80;63.70;;;;;;1847501;78;21093;-64
2022/09/20 10:19:25;;;;;;;7.85;3.95;;;23.90;63.70;;;;;;1918846;75;21096;-66
2022/09/20 10:22:00;;;;;;;7.70;3.92;;;24.00;64.10;;;;;;1919043;75;21021;-66
2022/09/20 10:25:12;;;;;;;6.95;3.72;;;24.00;63.10;;;;;;1912185;75;21044;-62
2022/09/20 10:28:15;;;;;;;7.70;3.60;;;24.10;63.20;;;;;;1918890;75;21142;-63
2022/09/20 10:30:55;;;;;;;10.90;4.45;;;24.20;62.10;;;;;;1891167;76;21065;-61
2022/09/20 10:33:27;;;;;;;9.48;5.67;;;24.20;62.00;;;;;;1890735;76;21030;-62
2022/09/20 10:35:59;;;;;;;12.78;5.12;;;24.10;61.90;;;;;;1889073;76;21064;-65
2022/09/20 10:38:36;;;;;;;7.83;4.05;;;24.20;62.50;;;;;;1891000;76;21538;-59
2022/09/20 10:44:22;;;;;;;9.15;4.97;;;24.30;61.60;;;;;;1890899;76;21119;-64
2022/09/20 10:47:05;;;;;;;9.45;4.70;;;24.30;61.50;;;;;;1891100;76;21025;-62
2022/09/20 10:49:37;;;;;;;5.42;3.65;;;24.30;61.10;;;;;;1890850;76;21101;-63
2022/09/20 10:52:21;;;;;;;7.42;3.40;;;24.40;60.40;;;;;;1890882;76;21087;-62
2022/09/20 10:55:08;;;;;;;8.23;2.90;;;24.50;59.90;;;;;;1891008;76;21100;-61
2022/09/20 10:57:59;;;;;;;6.97;2.98;;;24.50;59.90;;;;;;1890037;76;21472;-61
2022/09/20 11:00:53;;;;;;;4.85;3.30;;;24.50;59.60;;;;;;1891062;76;21550;-59
2022/09/20 11:03:50;;;;;;;6.58;3.12;;;24.50;59.70;;;;;;1890851;76;21001;-60
2022/09/20 11:06:25;;;;;;;6.58;3.30;;;24.50;58.80;;;;;;1880434;76;21133;-62
2022/09/20 11:08:57;;;;;;;12.63;4.22;;;24.60;58.90;;;;;;1890156;76;21179;-64
2022/09/20 11:11:31;;;;;;;24.95;12.43;;;24.60;58.80;;;;;;1890715;76;21061;-63
2022/09/20 11:14:03;;;;;;;6.03;3.45;;;24.60;59.30;;;;;;1890985;76;21078;-67
2022/09/20 11:16:44;;;;;;;18.17;5.12;;;24.60;59.00;;;;;;1890987;76;21118;-68
2022/09/20 11:19:34;;;;;;;8.08;4.05;;;24.60;59.40;;;;;;1887448;76;21050;-65
2022/09/20 11:22:09;;;;;;;9.93;4.45;;;24.50;59.80;;;;;;1890968;76;21112;-62
2022/09/20 11:25:01;;;;;;;8.18;3.70;;;24.50;59.30;;;;;;1890839;76;21475;-67
2022/09/20 11:27:42;;;;;;;9.68;4.03;;;24.50;60.10;;;;;;1890872;76;21151;-63
2022/09/20 11:30:20;;;;;;;11.78;3.30;;;24.40;59.20;;;;;;1890865;76;21527;-67
2022/09/20 11:32:57;;;;;;;4.10;2.95;;;24.40;59.70;;;;;;1890840;76;21120;-64
2022/09/20 11:35:29;;;;;;;9.50;3.58;;;24.40;59.10;;;;;;1890603;76;21053;-68
2022/09/20 11:38:04;;;;;;;7.40;3.10;;;24.40;60.00;;;;;;1883582;76;21617;-66
2022/09/20 11:40:39;;;;;;;8.78;2.77;;;24.40;59.70;;;;;;1890687;76;21108;-67
2022/09/20 11:43:09;;;;;;;5.00;2.83;;;24.50;58.30;;;;;;1890862;76;21026;-62
2022/09/20 11:45:41;;;;;;;8.73;3.00;;;24.50;58.60;;;;;;1890885;76;21448;-61
2022/09/20 11:48:25;;;;;;;6.30;2.80;;;24.50;58.80;;;;;;1890758;76;21154;-64
2022/09/20 11:51:18;;;;;;;5.55;2.50;;;24.60;58.50;;;;;;1890854;76;21468;-66
2022/09/20 11:54:14;;;;;;;9.93;2.65;;;24.60;58.00;;;;;;1890538;76;21033;-65
2022/09/20 11:56:51;;;;;;;3.15;2.05;;;24.70;57.00;;;;;;1890018;76;21037;-62
2022/09/20 11:59:35;;;;;;;8.48;2.90;;;24.70;56.20;;;;;;1890666;76;21096;-71
2022/09/20 12:02:14;;;;;;;5.92;2.83;;;24.70;56.00;;;;;;1890848;76;21083;-61
2022/09/20 12:04:48;;;;;;;6.47;2.72;;;24.60;55.90;;;;;;1889696;76;21088;-69
2022/09/20 12:07:37;;;;;;;6.33;2.55;;;24.60;55.80;;;;;;1890606;76;21076;-61
2022/09/20 12:10:27;;;;;;;6.62;2.20;;;24.60;55.80;;;;;;1839300;78;21069;-59
2022/09/20 12:13:08;;;;;;;10.75;2.98;;;24.60;55.30;;;;;;1883966;76;21060;-70
2022/09/20 12:15:39;;;;;;;3.95;2.15;;;24.60;53.80;;;;;;1890419;76;21579;-70
2022/09/20 12:18:31;;;;;;;6.58;2.33;;;24.60;55.20;;;;;;1890686;76;21195;-65
2022/09/20 12:21:08;;;;;;;13.85;2.75;;;24.60;54.90;;;;;;1890860;76;21049;-60
2022/09/20 12:23:49;;;;;;;6.22;2.30;;;24.60;55.00;;;;;;1890612;76;21147;-65
2022/09/20 12:26:20;;;;;;;5.42;2.02;;;24.60;55.10;;;;;;1890271;76;21515;-64
2022/09/20 12:28:52;;;;;;;7.83;2.42;;;24.60;55.00;;;;;;1890944;76;21514;-62
2022/09/20 12:31:32;;;;;;;4.83;2.08;;;24.60;55.30;;;;;;1880011;75;21081;-62
2022/09/20 12:34:10;;;;;;;3.75;1.90;;;24.60;54.10;;;;;;1833443;78;21207;-62
2022/09/20 12:36:55;;;;;;;5.67;2.02;;;24.50;54.50;;;;;;1831976;78;21080;-64
2022/09/20 12:39:26;;;;;;;13.37;2.40;;;24.60;54.20;;;;;;1831986;78;21132;-60
2022/09/20 12:42:03;;;;;;;21.23;2.98;;;24.50;54.30;;;;;;1864577;76;21084;-62
2022/09/20 12:44:50;;;;;;;3.90;2.22;;;24.50;54.40;;;;;;1833354;77;21058;-61
2022/09/20 12:47:28;;;;;;;2.37;1.80;;;24.50;53.90;;;;;;1833241;78;21192;-60
2022/09/20 12:53:00;;;;;;;7.05;2.02;;;24.50;54.70;;;;;;1864639;77;21061;-64
2022/09/20 12:55:31;;;;;;;7.17;2.02;;;24.50;54.40;;;;;;1865153;77;21127;-64
2022/09/20 12:58:13;;;;;;;6.60;2.15;;;24.50;54.50;;;;;;1865256;77;21483;-63
2022/09/20 13:00:45;;;;;;;4.37;1.90;;;24.50;54.60;;;;;;1864136;77;21060;-64
2022/09/20 13:03:20;;;;;;;11.28;1.90;;;24.50;53.90;;;;;;1865249;77;21541;-64
2022/09/20 13:06:10;;;;;;;6.20;2.77;;;24.50;54.00;;;;;;1865365;77;21053;-64
2022/09/20 13:08:57;;;;;;;11.00;3.08;;;24.50;53.70;;;;;;1865146;77;21064;-64
2022/09/20 13:11:47;;;;;;;5.53;1.90;;;24.50;53.70;;;;;;1865258;77;21032;-64
2022/09/20 13:14:25;;;;;;;6.47;2.05;;;24.50;53.30;;;;;;1865286;77;21056;-64
2022/09/20 13:17:15;;;;;;;5.50;2.30;;;24.50;53.00;;;;;;1864421;77;21491;-63
2022/09/20 13:19:48;;;;;;;7.58;2.10;;;24.60;53.30;;;;;;1865151;77;21044;-63
2022/09/20 13:22:30;;;;;;;5.53;1.90;;;24.60;53.70;;;;;;1865196;77;21420;-63
2022/09/20 13:25:01;;;;;;;9.23;2.60;;;24.60;53.90;;;;;;1865138;77;21060;-64
2022/09/20 13:27:33;;;;;;;4.92;2.00;;;24.50;53.90;;;;;;1865117;77;21369;-63
2022/09/20 13:30:20;;;;;;;4.20;1.70;;;24.60;54.10;;;;;;1865076;77;21495;-63
2022/09/20 13:32:51;;;;;;;12.13;3.83;;;24.60;53.90;;;;;;1862380;77;21080;-63
2022/09/20 13:35:31;;;;;;;5.15;1.80;;;24.60;54.10;;;;;;1861147;77;21566;-63
2022/09/20 13:37:59;;;;;;;7.50;3.00;;;24.60;53.90;;;;;;1860477;77;21577;-63
2022/09/20 13:40:37;;;;;;;9.13;2.90;;;24.60;54.10;;;;;;1861235;77;21492;-64
2022/09/20 13:43:27;;;;;;;10.58;3.58;;;24.60;54.50;;;;;;1861248;77;21107;-63
2022/09/20 13:45:58;;;;;;;5.67;3.05;;;24.50;54.80;;;;;;1855859;77;21124;-63
2022/09/20 13:48:29;;;;;;;7.12;2.00;;;24.50;54.60;;;;;;1861236;77;21098;-63
2022/09/20 13:50:59;;;;;;;7.12;2.10;;;24.50;54.00;;;;;;1861324;77;21017;-63
2022/09/20 13:53:32;;;;;;;3.67;1.60;;;24.40;53.30;;;;;;1861279;77;21045;-63
2022/09/20 13:56:01;;;;;;;5.33;1.57;;;24.40;53.20;;;;;;1861429;77;21041;-63